Time;durP1;ratioP1;P1;durP2;ratioP2;P2;SDS_P1;SDS_P2;PMS_P1;PMS_P2;Temp;Humidity;BMP_temperature;BMP_pressure;BME280_temperature;BME280_humidity;BME280_pressure;Samples;Min_cycle;Max_cycle;Signal;HPM_P1;HPM_P2
2022/09/04 00:00:55;;;;;;;;;;;;;;;25.04;39.27;99359.13;4441217;32;34046;-82
2022/09/04 00:03:27;;;;;;;;;;;;;;;25.05;39.37;99360.81;4439909;32;33198;-81
2022/09/04 00:05:55;;;;;;;;;;;;;;;25.10;39.22;99358.84;4437680;32;33178;-83
2022/09/04 00:08:48;;;;;;;;;;;;;;;25.08;39.17;99359.81;4439094;32;32895;-82
2022/09/04 00:11:25;;;;;;;;;;;;;;;25.04;39.37;99361.75;4441228;32;34347;-82
2022/09/04 00:14:16;;;;;;;;;;;;;;;25.05;39.44;99360.81;4441018;32;34359;-82
2022/09/04 00:16:53;;;;;;;;;;;;;;;25.05;39.39;99360.81;4434993;32;33305;-81
2022/09/04 00:19:28;;;;;;;;;;;;;;;25.13;39.25;99358.72;4441454;32;34556;-80
2022/09/04 00:21:59;;;;;;;;;;;;;;;25.16;39.13;99363.91;4440720;32;33125;-82
2022/09/04 00:24:29;;;;;;;;;;;;;;;25.26;38.85;99360.84;4440314;32;33029;-81
2022/09/04 00:27:15;;;;;;;;;;;;;;;25.23;38.98;99365.38;4441635;32;33294;-82
2022/09/04 00:29:51;;;;;;;;;;;;;;;25.17;39.27;99368.28;4442514;32;34178;-81
2022/09/04 00:32:37;;;;;;;;;;;;;;;25.19;39.42;99369.09;4450505;32;34395;-82
2022/09/04 00:35:16;;;;;;;;;;;;;;;25.39;38.97;99375.31;4449268;32;34380;-83
2022/09/04 00:37:55;;;;;;;;;;;;;;;25.30;39.08;99376.53;4440936;32;33367;-84
2022/09/04 00:40:40;;;;;;;;;;;;;;;25.33;39.17;99376.41;4449696;32;33779;-84
2022/09/04 00:43:24;;;;;;;;;;;;;;;25.35;39.23;99369.25;4441777;32;34261;-83
2022/09/04 00:45:52;;;;;;;;;;;;;;;25.39;39.11;99370.00;4437298;32;34043;-84
2022/09/04 00:48:38;;;;;;;;;;;;;;;25.44;38.92;99367.97;4437379;32;33508;-84
2022/09/04 00:51:14;;;;;;;;;;;;;;;25.41;39.06;99373.41;4447234;32;34881;-84
2022/09/04 00:54:00;;;;;;;;;;;;;;;25.49;38.95;99371.28;4467393;32;35135;-85
2022/09/04 00:56:47;;;;;;;;;;;;;;;25.41;39.10;99373.41;4467032;32;34531;-82
2022/09/04 00:59:20;;;;;;;;;;;;;;;25.43;39.44;99368.91;4467261;32;33882;-82
2022/09/04 01:01:50;;;;;;;;;;;;;;;25.52;39.25;99376.47;4453306;32;33741;-83
2022/09/04 01:04:32;;;;;;;;;;;;;;;25.45;39.54;99370.56;4469639;32;34393;-83
2022/09/04 01:07:22;;;;;;;;;;;;;;;25.34;39.88;99364.00;4466207;32;34778;-84
2022/09/04 01:09:59;;;;;;;;;;;;;;;25.38;39.81;99365.59;4474664;32;33152;-83
2022/09/04 01:12:32;;;;;;;;;;;;;;;25.54;39.32;99364.00;4482892;32;34091;-82
2022/09/04 01:15:18;;;;;;;;;;;;;;;25.62;39.13;99376.91;4467989;32;35040;-83
2022/09/04 01:17:45;;;;;;;;;;;;;;;25.59;39.10;99385.88;4452901;32;34067;-82
2022/09/04 01:20:31;;;;;;;;;;;;;;;25.66;38.95;99389.97;4479483;32;33217;-82
2022/09/04 01:23:01;;;;;;;;;;;;;;;25.70;38.99;99383.59;4484582;32;33957;-82
2022/09/04 01:25:36;;;;;;;;;;;;;;;25.78;38.94;99388.59;4480610;32;35371;-82
2022/09/04 01:28:06;;;;;;;;;;;;;;;25.78;39.00;99396.56;4454793;32;33633;-84
2022/09/04 01:30:36;;;;;;;;;;;;;;;25.79;38.99;99400.91;4480831;32;33653;-82
2022/09/04 01:33:09;;;;;;;;;;;;;;;25.73;39.06;99398.53;4469789;32;34100;-82
2022/09/04 01:35:51;;;;;;;;;;;;;;;25.84;38.76;99398.94;4470167;32;35310;-83
2022/09/04 01:38:19;;;;;;;;;;;;;;;25.83;38.82;99404.31;4469950;32;34968;-83
2022/09/04 01:40:53;;;;;;;;;;;;;;;25.54;39.61;99393.19;4484252;32;33330;-84
2022/09/04 01:43:20;;;;;;;;;;;;;;;25.38;39.98;99397.44;4470285;32;35048;-82
2022/09/04 01:46:06;;;;;;;;;;;;;;;25.47;39.78;99399.69;4484458;32;34333;-83
2022/09/04 01:48:33;;;;;;;;;;;;;;;25.43;39.85;99412.25;4483965;32;35013;-83
2022/09/04 01:51:02;;;;;;;;;;;;;;;25.46;39.67;99403.31;4468404;32;33605;-84
2022/09/04 01:53:30;;;;;;;;;;;;;;;25.38;39.76;99400.09;4454677;32;34972;-82
2022/09/04 01:56:09;;;;;;;;;;;;;;;25.51;39.48;99401.28;4469641;32;35210;-82
2022/09/04 01:58:54;;;;;;;;;;;;;;;25.06;40.41;99406.78;4484083;32;34234;-83
2022/09/04 02:01:27;;;;;;;;;;;;;;;25.07;40.41;99409.34;4470151;32;33194;-83
2022/09/04 02:04:01;;;;;;;;;;;;;;;25.30;39.98;99412.84;4480417;32;34314;-83
2022/09/04 02:06:43;;;;;;;;;;;;;;;25.40;39.71;99403.56;4484325;32;34546;-82
2022/09/04 02:09:14;;;;;;;;;;;;;;;25.34;39.70;99403.81;4468255;32;35008;-81
2022/09/04 02:11:47;;;;;;;;;;;;;;;25.17;39.98;99407.22;4484161;31;33556;-83
2022/09/04 02:14:20;;;;;;;;;;;;;;;25.18;39.88;99404.47;4470507;32;34020;-83
2022/09/04 02:17:07;;;;;;;;;;;;;;;24.56;40.93;99415.91;4454721;32;34335;-83
2022/09/04 02:19:35;;;;;;;;;;;;;;;24.63;40.97;99412.09;4468497;32;34724;-83
2022/09/04 02:22:06;;;;;;;;;;;;;;;25.04;40.21;99409.50;4468528;32;33246;-85
2022/09/04 02:24:34;;;;;;;;;;;;;;;25.22;39.84;99411.38;4441320;32;34732;-84
2022/09/04 02:27:21;;;;;;;;;;;;;;;25.27;39.64;99411.22;4454375;32;34463;-84
2022/09/04 02:29:50;;;;;;;;;;;;;;;25.29;39.58;99405.81;4468347;32;34235;-82
2022/09/04 02:32:19;;;;;;;;;;;;;;;24.31;41.29;99420.44;4467702;32;34225;-84
2022/09/04 02:34:54;;;;;;;;;;;;;;;24.14;41.75;99427.25;4454420;32;33909;-84
2022/09/04 02:37:34;;;;;;;;;;;;;;;23.56;43.17;99416.16;4468081;32;34514;-85
2022/09/04 02:40:10;;;;;;;;;;;;;;;24.46;41.34;99422.50;4468238;32;34402;-82
2022/09/04 02:42:38;;;;;;;;;;;;;;;23.95;42.48;99424.44;4457967;32;33322;-83
2022/09/04 02:45:14;;;;;;;;;;;;;;;24.40;41.57;99420.13;4474227;32;33726;-84
2022/09/04 02:47:48;;;;;;;;;;;;;;;24.71;40.89;99414.44;4454531;32;35375;-83
2022/09/04 02:50:37;;;;;;;;;;;;;;;24.47;41.18;99417.16;4477596;32;35058;-84
2022/09/04 02:53:15;;;;;;;;;;;;;;;24.14;42.08;99421.97;4483447;32;33226;-81
2022/09/04 02:55:51;;;;;;;;;;;;;;;24.51;41.19;99423.19;4464089;32;34905;-82
2022/09/04 02:58:28;;;;;;;;;;;;;;;24.60;41.18;99417.50;4466251;32;35337;-84
2022/09/04 03:01:04;;;;;;;;;;;;;;;24.11;42.01;99419.41;4480757;32;33979;-81
2022/09/04 03:03:34;;;;;;;;;;;;;;;23.14;44.13;99424.69;4460211;32;34105;-84
2022/09/04 03:06:02;;;;;;;;;;;;;;;22.99;44.57;99427.84;4483022;32;33817;-84
2022/09/04 03:08:40;;;;;;;;;;;;;;;23.73;42.95;99424.38;4474716;32;34222;-85
2022/09/04 03:11:24;;;;;;;;;;;;;;;24.12;42.18;99425.56;4482945;32;34372;-83
2022/09/04 03:14:12;;;;;;;;;;;;;;;24.34;41.76;99417.66;4477582;31;32778;-82
2022/09/04 03:16:41;;;;;;;;;;;;;;;23.84;42.41;99416.03;4463509;32;33964;-84
2022/09/04 03:19:27;;;;;;;;;;;;;;;24.31;41.59;99420.44;4455651;32;35276;-82
2022/09/04 03:21:55;;;;;;;;;;;;;;;24.66;40.90;99422.56;4478736;31;35106;-83
2022/09/04 03:24:25;;;;;;;;;;;;;;;24.00;41.94;99424.25;4483684;32;34286;-82
2022/09/04 03:26:57;;;;;;;;;;;;;;;24.35;41.42;99429.97;4453837;32;35222;-83
2022/09/04 03:29:44;;;;;;;;;;;;;;;24.35;41.36;99432.62;4453907;32;34489;-83
2022/09/04 03:32:28;;;;;;;;;;;;;;;24.57;40.94;99427.38;4481632;32;34835;-84
2022/09/04 03:35:22;;;;;;;;;;;;;;;24.74;40.37;99436.37;4469554;32;33122;-83
2022/09/04 03:38:11;;;;;;;;;;;;;;;24.93;40.06;99438.28;4478382;32;34978;-84
2022/09/04 03:40:44;;;;;;;;;;;;;;;24.83;40.01;99439.56;4459049;32;33950;-82
2022/09/04 03:43:30;;;;;;;;;;;;;;;24.38;40.72;99443.97;4467692;32;34279;-83
2022/09/04 03:46:04;;;;;;;;;;;;;;;23.84;42.17;99439.88;4468826;32;33540;-82
2022/09/04 03:48:31;;;;;;;;;;;;;;;24.33;41.06;99437.16;4480011;32;33744;-83
2022/09/04 03:51:13;;;;;;;;;;;;;;;24.63;40.55;99440.41;4472643;32;34514;-84
2022/09/04 03:53:42;;;;;;;;;;;;;;;24.69;40.22;99443.63;4483023;32;34854;-84
2022/09/04 03:56:11;;;;;;;;;;;;;;;24.23;41.17;99445.44;4461985;32;33589;-84
2022/09/04 03:58:41;;;;;;;;;;;;;;;23.79;42.03;99437.41;4475964;32;34390;-84
2022/09/04 04:01:11;;;;;;;;;;;;;;;23.96;41.74;99444.69;4470457;32;35208;-84
2022/09/04 04:03:42;;;;;;;;;;;;;;;22.93;43.94;99452.72;4465305;32;34023;-84
2022/09/04 04:06:32;;;;;;;;;;;;;;;23.65;42.44;99444.94;4467701;32;33116;-83
2022/09/04 04:09:10;;;;;;;;;;;;;;;23.97;41.71;99449.06;4470805;32;34128;-84
2022/09/04 04:11:41;;;;;;;;;;;;;;;23.15;43.48;99452.03;4463129;32;34446;-84
2022/09/04 04:14:16;;;;;;;;;;;;;;;22.59;45.02;99452.94;4467604;32;34268;-85
2022/09/04 04:16:50;;;;;;;;;;;;;;;22.92;44.24;99463.34;4468537;32;33467;-84
2022/09/04 04:19:41;;;;;;;;;;;;;;;22.70;44.98;99476.38;4462503;32;34284;-83
2022/09/04 04:22:38;;;;;;;;;;;;;;;23.14;43.84;99479.38;4468016;32;33925;-84
2022/09/04 04:25:05;;;;;;;;;;;;;;;22.00;46.60;99477.53;4424768;32;33920;-83
2022/09/04 04:27:47;;;;;;;;;;;;;;;20.53;50.42;99493.59;4480814;32;33397;-83
2022/09/04 04:30:15;;;;;;;;;;;;;;;21.77;47.49;99498.44;4476225;32;35212;-83
2022/09/04 04:32:52;;;;;;;;;;;;;;;22.55;45.54;99496.22;4454317;32;34463;-84
2022/09/04 04:35:27;;;;;;;;;;;;;;;21.63;47.98;99501.50;4459076;32;34282;-84
2022/09/04 04:37:55;;;;;;;;;;;;;;;21.55;48.15;99511.34;4469037;32;32843;-85
2022/09/04 04:40:25;;;;;;;;;;;;;;;21.40;48.79;99527.59;4471139;32;34293;-83
2022/09/04 04:43:07;;;;;;;;;;;;;;;21.16;49.22;99516.72;4472991;32;35277;-83
2022/09/04 04:45:49;;;;;;;;;;;;;;;21.74;48.13;99517.88;4483131;32;34008;-83
2022/09/04 04:48:35;;;;;;;;;;;;;;;21.66;48.14;99511.94;4470075;32;32916;-83
2022/09/04 04:51:06;;;;;;;;;;;;;;;21.22;49.43;99519.22;4482419;32;33966;-84
2022/09/04 04:53:48;;;;;;;;;;;;;;;20.84;50.35;99526.28;4482211;32;34509;-85
2022/09/04 04:56:30;;;;;;;;;;;;;;;20.69;50.97;99526.63;4471126;32;34889;-85
2022/09/04 04:59:22;;;;;;;;;;;;;;;21.64;48.33;99526.97;4466121;32;33407;-85
2022/09/04 05:01:54;;;;;;;;;;;;;;;21.69;48.73;99532.97;4442716;32;34106;-84
2022/09/04 05:04:35;;;;;;;;;;;;;;;21.49;49.28;99536.13;4463643;32;34230;-84
2022/09/04 05:07:06;;;;;;;;;;;;;;;21.43;49.51;99543.34;4453232;32;34037;-84
2022/09/04 05:09:35;;;;;;;;;;;;;;;21.07;50.44;99532.78;4453223;32;33809;-85
2022/09/04 05:12:21;;;;;;;;;;;;;;;20.82;50.56;99537.75;4453055;32;35286;-82
2022/09/04 05:14:51;;;;;;;;;;;;;;;21.16;50.11;99540.44;4470316;32;34508;-86
2022/09/04 05:17:39;;;;;;;;;;;;;;;20.28;52.68;99541.53;4475513;32;35180;-84
2022/09/04 05:20:24;;;;;;;;;;;;;;;20.77;51.78;99542.25;4453216;32;33566;-83
2022/09/04 05:23:00;;;;;;;;;;;;;;;20.87;51.11;99542.03;4453160;32;34220;-84
2022/09/04 05:25:35;;;;;;;;;;;;;;;21.54;49.77;99543.94;4466782;32;35351;-85
2022/09/04 05:28:26;;;;;;;;;;;;;;;22.43;47.47;99530.94;4466156;32;34111;-84
2022/09/04 05:31:12;;;;;;;;;;;;;;;23.01;45.83;99535.31;4461225;32;33534;-84
2022/09/04 05:33:57;;;;;;;;;;;;;;;22.16;47.86;99538.75;4466791;32;34339;-84
2022/09/04 05:36:42;;;;;;;;;;;;;;;21.24;50.30;99553.44;4452900;32;34448;-85
2022/09/04 05:39:10;;;;;;;;;;;;;;;20.81;51.69;99557.09;4466545;32;33815;-84
2022/09/04 05:41:39;;;;;;;;;;;;;;;21.23;50.52;99555.22;4466783;32;34069;-84
2022/09/04 05:44:35;;;;;;;;;;;;;;;21.21;50.67;99558.78;4457109;32;34316;-84
2022/09/04 05:47:23;;;;;;;;;;;;;;;21.96;48.63;99562.16;4424758;32;34971;-85
2022/09/04 05:50:19;;;;;;;;;;;;;;;21.26;50.56;99568.34;4453457;32;34306;-85
2022/09/04 05:53:00;;;;;;;;;;;;;;;21.04;50.96;99575.03;4473569;32;32983;-84
2022/09/04 05:55:30;;;;;;;;;;;;;;;21.78;49.16;99569.69;4466072;32;35032;-84
2022/09/04 05:58:12;;;;;;;;;;;;;;;22.01;48.67;99560.25;4456285;32;32671;-85
2022/09/04 06:00:45;;;;;;;;;;;;;;;21.40;50.35;99575.06;4465915;32;35042;-85
2022/09/04 06:03:32;;;;;;;;;;;;;;;22.16;48.53;99559.87;4480597;32;33459;-85
2022/09/04 06:06:02;;;;;;;;;;;;;;;21.56;49.82;99564.09;4459757;32;33878;-84
2022/09/04 06:08:50;;;;;;;;;;;;;;;21.33;50.74;99562.03;4468798;32;34503;-84
2022/09/04 06:11:32;;;;;;;;;;;;;;;21.28;51.02;99568.28;4451403;32;34153;-85
2022/09/04 06:14:05;;;;;;;;;;;;;;;21.10;51.24;99569.59;4454377;32;34288;-85
2022/09/04 06:16:32;;;;;;;;;;;;;;;21.62;49.98;99570.97;4479404;32;34253;-85
2022/09/04 06:19:15;;;;;;;;;;;;;;;21.26;50.80;99570.09;4484149;32;34528;-85
2022/09/04 06:21:55;;;;;;;;;;;;;;;20.79;51.84;99572.06;4478785;32;35030;-85
2022/09/04 06:24:34;;;;;;;;;;;;;;;20.29;53.58;99569.56;4454394;32;34330;-84
2022/09/04 06:27:05;;;;;;;;;;;;;;;21.25;51.08;99579.78;4478149;32;34233;-84
2022/09/04 06:30:02;;;;;;;;;;;;;;;22.01;49.19;99570.81;4460410;32;35134;-83
2022/09/04 06:32:29;;;;;;;;;;;;;;;22.49;48.04;99570.38;4462107;32;34075;-84
2022/09/04 06:35:09;;;;;;;;;;;;;;;22.64;47.39;99577.84;4471263;32;33184;-84
2022/09/04 06:37:37;;;;;;;;;;;;;;;23.18;46.16;99573.56;4454428;32;33737;-83
2022/09/04 06:40:07;;;;;;;;;;;;;;;21.90;49.01;99583.47;4476648;32;34191;-84
2022/09/04 06:42:54;;;;;;;;;;;;;;;21.36;50.17;99583.03;4454200;32;33739;-84
2022/09/04 06:45:24;;;;;;;;;;;;;;;21.83;49.10;99574.84;4467862;32;33844;-81
2022/09/04 06:48:10;;;;;;;;;;;;;;;22.22;48.00;99580.81;4464907;32;35076;-81
2022/09/04 06:50:41;;;;;;;;;;;;;;;22.78;46.82;99590.66;4464613;32;34415;-80
2022/09/04 06:53:13;;;;;;;;;;;;;;;21.51;49.28;99600.25;4453930;32;34499;-84
2022/09/04 06:56:01;;;;;;;;;;;;;;;22.35;47.37;99591.94;4468143;32;34316;-83
2022/09/04 06:58:28;;;;;;;;;;;;;;;21.64;49.00;99598.19;4467482;32;35010;-83
2022/09/04 07:00:59;;;;;;;;;;;;;;;21.24;50.13;99596.50;4470127;32;34909;-81
2022/09/04 07:03:29;;;;;;;;;;;;;;;20.77;51.30;99593.19;4463869;32;34455;-82
2022/09/04 07:06:03;;;;;;;;;;;;;;;21.96;48.89;99597.34;4467119;32;33300;-83
2022/09/04 07:08:49;;;;;;;;;;;;;;;21.42;49.72;99607.56;4453837;32;34929;-84
2022/09/04 07:11:16;;;;;;;;;;;;;;;21.01;50.92;99612.00;4472848;32;35248;-83
2022/09/04 07:13:59;;;;;;;;;;;;;;;22.19;47.90;99596.75;4479636;32;34234;-84
2022/09/04 07:16:39;;;;;;;;;;;;;;;21.24;50.57;99599.13;4465736;32;33430;-83
2022/09/04 07:19:06;;;;;;;;;;;;;;;21.73;49.54;99611.16;4481943;32;34869;-84
2022/09/04 07:21:41;;;;;;;;;;;;;;;21.35;50.54;99606.81;4473105;32;34051;-84
2022/09/04 07:24:08;;;;;;;;;;;;;;;22.24;48.18;99600.16;4462600;32;34056;-82
2022/09/04 07:26:38;;;;;;;;;;;;;;;21.64;49.80;99603.47;4481512;32;34174;-82
2022/09/04 07:29:08;;;;;;;;;;;;;;;22.09;49.27;99603.19;4469193;32;34406;-83
2022/09/04 07:31:40;;;;;;;;;;;;;;;21.06;51.51;99607.47;4481488;32;35240;-82
2022/09/04 07:34:18;;;;;;;;;;;;;;;21.14;51.61;99608.19;4454751;32;35118;-83
2022/09/04 07:36:45;;;;;;;;;;;;;;;21.42;51.08;99612.81;4454007;32;34179;-83
2022/09/04 07:39:15;;;;;;;;;;;;;;;21.68;50.44;99614.81;4465371;32;34075;-81
2022/09/04 07:41:51;;;;;;;;;;;;;;;21.34;51.22;99624.44;4469549;32;34525;-81
2022/09/04 07:44:43;;;;;;;;;;;;;;;21.71;50.20;99622.66;4469199;32;34253;-83
2022/09/04 07:47:13;;;;;;;;;;;;;;;22.12;48.85;99613.63;4477145;32;33308;-81
2022/09/04 07:49:59;;;;;;;;;;;;;;;21.53;50.95;99631.91;4453053;32;34235;-83
2022/09/04 07:52:29;;;;;;;;;;;;;;;21.75;50.27;99629.59;4470824;32;33838;-83
2022/09/04 07:55:07;;;;;;;;;;;;;;;21.45;50.37;99623.31;4481287;32;34458;-83
2022/09/04 07:57:53;;;;;;;;;;;;;;;21.80;49.96;99623.28;4460015;32;33833;-82
2022/09/04 08:00:21;;;;;;;;;;;;;;;22.21;48.87;99621.34;4481283;32;34256;-83
2022/09/04 08:03:00;;;;;;;;;;;;;;;22.63;47.76;99623.69;4465803;32;35282;-83
2022/09/04 08:05:43;;;;;;;;;;;;;;;23.37;45.86;99629.38;4454713;32;34292;-82
2022/09/04 08:08:30;;;;;;;;;;;;;;;23.50;45.50;99641.31;4465286;32;33493;-82
2022/09/04 08:11:03;;;;;;;;;;;;;;;23.08;46.31;99643.56;4483317;32;33873;-83
2022/09/04 08:13:37;;;;;;;;;;;;;;;22.75;47.25;99656.81;4482406;32;35218;-83
2022/09/04 08:16:06;;;;;;;;;;;;;;;23.15;46.69;99664.47;4474855;32;35134;-83
2022/09/04 08:18:34;;;;;;;;;;;;;;;23.48;45.17;99656.38;4483348;32;33406;-86
2022/09/04 08:21:01;;;;;;;;;;;;;;;24.23;43.62;99657.37;4469099;32;33990;-85
2022/09/04 08:23:28;;;;;;;;;;;;;;;22.58;46.93;99655.53;4483133;32;34153;-87
2022/09/04 08:26:13;;;;;;;;;;;;;;;23.36;46.00;99656.78;4483316;32;33687;-86
2022/09/04 08:28:55;;;;;;;;;;;;;;;24.41;43.07;99647.09;4468338;32;34260;-85
2022/09/04 08:31:42;;;;;;;;;;;;;;;25.10;41.67;99650.69;4473127;32;33837;-84
2022/09/04 08:34:09;;;;;;;;;;;;;;;24.87;42.54;99648.88;4467451;32;35286;-87
2022/09/04 08:36:36;;;;;;;;;;;;;;;25.43;40.96;99660.91;4467709;32;33634;-85
2022/09/04 08:39:08;;;;;;;;;;;;;;;25.20;42.15;99656.50;4467480;32;34080;-86
2022/09/04 08:41:41;;;;;;;;;;;;;;;25.36;41.75;99656.75;4453283;32;35271;-87
2022/09/04 08:44:21;;;;;;;;;;;;;;;25.54;40.44;99655.16;4453720;32;33993;-85
2022/09/04 08:46:52;;;;;;;;;;;;;;;25.77;39.65;99655.06;4453265;32;33589;-85
2022/09/04 08:49:27;;;;;;;;;;;;;;;25.58;40.18;99664.72;4469039;32;34511;-86
2022/09/04 08:52:13;;;;;;;;;;;;;;;25.54;41.35;99663.13;4468511;32;33592;-86
2022/09/04 08:54:47;;;;;;;;;;;;;;;25.92;39.72;99659.78;4482727;31;34340;-86
2022/09/04 08:57:30;;;;;;;;;;;;;;;25.39;40.45;99661.97;4482789;32;34948;-86
2022/09/04 09:00:14;;;;;;;;;;;;;;;24.55;42.56;99666.00;4483463;32;33132;-85
2022/09/04 09:02:59;;;;;;;;;;;;;;;25.39;41.44;99659.31;4469129;32;33846;-85
2022/09/04 09:05:27;;;;;;;;;;;;;;;25.00;41.92;99654.56;4472429;32;34416;-86
2022/09/04 09:07:54;;;;;;;;;;;;;;;24.97;41.92;99655.59;4467507;32;34041;-87
2022/09/04 09:10:27;;;;;;;;;;;;;;;25.22;41.35;99654.66;4467029;32;33569;-85
2022/09/04 09:12:54;;;;;;;;;;;;;;;25.84;40.09;99659.22;4466752;32;33534;-86
2022/09/04 09:15:28;;;;;;;;;;;;;;;25.31;41.13;99670.22;4467159;32;34345;-86
2022/09/04 09:18:16;;;;;;;;;;;;;;;24.91;41.51;99670.84;4453199;32;35066;-88
2022/09/04 09:20:45;;;;;;;;;;;;;;;25.17;41.01;99668.09;4467911;32;34564;-85
2022/09/04 09:23:17;;;;;;;;;;;;;;;24.68;42.19;99669.94;4452931;32;34212;-86
2022/09/04 09:25:48;;;;;;;;;;;;;;;24.86;42.66;99664.88;4452976;32;34844;-86
2022/09/04 09:28:28;;;;;;;;;;;;;;;25.45;41.41;99667.84;4453107;32;34020;-86
2022/09/04 09:31:11;;;;;;;;;;;;;;;25.18;41.03;99669.81;4467771;32;34343;-85
2022/09/04 09:33:57;;;;;;;;;;;;;;;25.52;40.21;99678.25;4473617;32;34354;-83
2022/09/04 09:36:43;;;;;;;;;;;;;;;25.55;40.90;99684.28;4466782;32;33961;-86
2022/09/04 09:39:16;;;;;;;;;;;;;;;25.38;40.45;99678.78;4466597;32;34545;-87
2022/09/04 09:42:02;;;;;;;;;;;;;;;25.65;40.56;99685.66;4469347;32;33754;-86
2022/09/04 09:44:41;;;;;;;;;;;;;;;24.96;41.68;99679.50;4477456;32;34609;-86
2022/09/04 09:47:19;;;;;;;;;;;;;;;25.60;40.79;99678.78;4484270;32;34079;-88
2022/09/04 09:50:02;;;;;;;;;;;;;;;24.12;42.89;99678.09;4470027;32;34117;-86
2022/09/04 09:52:41;;;;;;;;;;;;;;;24.73;42.32;99678.56;4484170;32;34084;-85
2022/09/04 09:55:08;;;;;;;;;;;;;;;24.93;42.50;99677.84;4470366;32;34273;-84
2022/09/04 09:57:54;;;;;;;;;;;;;;;25.91;40.52;99681.97;4468727;32;34000;-84
2022/09/04 10:00:24;;;;;;;;;;;;;;;26.25;39.38;99672.53;4469936;32;34034;-84
2022/09/04 10:02:51;;;;;;;;;;;;;;;26.09;39.70;99674.97;4468377;32;34194;-86
2022/09/04 10:05:37;;;;;;;;;;;;;;;26.50;38.28;99672.34;4469303;32;34215;-84
2022/09/04 10:08:11;;;;;;;;;;;;;;;26.51;38.76;99674.06;4467905;32;34087;-84
2022/09/04 10:10:39;;;;;;;;;;;;;;;26.19;38.58;99681.63;4478537;32;34236;-84
2022/09/04 10:13:06;;;;;;;;;;;;;;;25.61;40.15;99683.16;4478578;32;33180;-85
2022/09/04 10:15:40;;;;;;;;;;;;;;;24.70;41.68;99689.31;4479716;32;34959;-86
2022/09/04 10:18:17;;;;;;;;;;;;;;;24.94;41.23;99679.56;4463975;32;33473;-84
2022/09/04 10:21:11;;;;;;;;;;;;;;;24.81;41.77;99680.94;4472709;32;33703;-83
2022/09/04 10:23:46;;;;;;;;;;;;;;;25.14;41.61;99673.53;4451501;32;34716;-85
2022/09/04 10:26:16;;;;;;;;;;;;;;;25.47;40.50;99681.09;4468148;32;34581;-85
2022/09/04 10:29:04;;;;;;;;;;;;;;;25.02;43.03;99679.28;4479245;31;35458;-84
2022/09/04 10:31:37;;;;;;;;;;;;;;;25.79;41.24;99682.44;4454478;32;34314;-83
2022/09/04 10:34:23;;;;;;;;;;;;;;;25.81;40.96;99674.44;4465332;32;33459;-84
2022/09/04 10:37:16;;;;;;;;;;;;;;;25.81;41.92;99679.75;4464951;32;33813;-83
2022/09/04 10:42:39;;;;;;;;;;;;;;;26.63;42.20;99686.84;4464449;32;33930;-84
2022/09/04 10:45:19;;;;;;;;;;;;;;;26.86;42.29;99693.78;4478417;32;33250;-84
2022/09/04 10:48:06;;;;;;;;;;;;;;;26.89;42.66;99688.28;4467619;32;33941;-86
2022/09/04 10:50:55;;;;;;;;;;;;;;;26.97;42.85;99695.91;4480861;32;33634;-85
2022/09/04 10:53:41;;;;;;;;;;;;;;;26.89;43.12;99692.75;4466968;32;33664;-86
2022/09/04 10:56:34;;;;;;;;;;;;;;;26.91;43.42;99696.22;4464904;32;33420;-84
2022/09/04 10:59:11;;;;;;;;;;;;;;;26.80;43.92;99704.69;4450964;32;34199;-85
2022/09/04 11:01:58;;;;;;;;;;;;;;;26.85;43.79;99699.16;4465243;32;33950;-86
2022/09/04 11:04:28;;;;;;;;;;;;;;;26.94;43.53;99696.09;4464063;32;33741;-86
2022/09/04 11:07:01;;;;;;;;;;;;;;;26.87;43.90;99694.63;4465807;32;32866;-81
2022/09/04 11:09:35;;;;;;;;;;;;;;;26.65;45.11;99700.06;4463566;32;34022;-85
2022/09/04 11:12:11;;;;;;;;;;;;;;;26.76;45.03;99703.09;4450731;32;33929;-88
2022/09/04 11:14:48;;;;;;;;;;;;;;;27.07;44.51;99697.22;4465430;32;33815;-85
2022/09/04 11:17:29;;;;;;;;;;;;;;;26.81;45.46;99702.88;4451639;32;34044;-85
2022/09/04 11:20:15;;;;;;;;;;;;;;;26.86;43.38;99692.91;4465153;32;33755;-85
2022/09/04 11:23:03;;;;;;;;;;;;;;;27.04;42.54;99697.38;4465283;32;35187;-86
2022/09/04 11:25:50;;;;;;;;;;;;;;;26.78;43.02;99697.69;4464635;32;34057;-86
2022/09/04 11:28:39;;;;;;;;;;;;;;;26.78;43.24;99695.03;4464555;32;33387;-89
2022/09/04 11:31:06;;;;;;;;;;;;;;;26.57;43.35;99695.09;4465662;32;34322;-83
2022/09/04 11:33:43;;;;;;;;;;;;;;;25.53;44.52;99702.06;4466637;32;34261;-88
2022/09/04 11:36:17;;;;;;;;;;;;;;;25.77;44.20;99707.34;4451925;32;34086;-86
2022/09/04 11:39:00;;;;;;;;;;;;;;;26.32;44.19;99702.38;4464943;32;33873;-90
2022/09/04 11:41:30;;;;;;;;;;;;;;;26.09;44.16;99711.31;4466130;32;34012;-86
2022/09/04 11:44:16;;;;;;;;;;;;;;;26.89;41.29;99695.41;4465081;32;35137;-87
2022/09/04 11:46:49;;;;;;;;;;;;;;;27.07;41.57;99697.22;4463912;32;34137;-87
2022/09/04 11:49:17;;;;;;;;;;;;;;;26.29;41.67;99692.75;4454819;32;32818;-85
2022/09/04 11:52:02;;;;;;;;;;;;;;;26.49;41.93;99681.28;4479300;32;33997;-86
2022/09/04 11:54:35;;;;;;;;;;;;;;;26.52;41.83;99683.78;4480030;32;35143;-86
2022/09/04 11:57:22;;;;;;;;;;;;;;;26.77;41.95;99678.22;4464913;32;34320;-87
2022/09/04 11:59:49;;;;;;;;;;;;;;;27.00;42.13;99679.81;4482394;32;33410;-86
2022/09/04 12:02:24;;;;;;;;;;;;;;;26.61;42.45;99678.06;4476822;32;34346;-88
2022/09/04 12:04:55;;;;;;;;;;;;;;;27.22;39.26;99658.41;4465085;32;34424;-89
2022/09/04 12:07:41;;;;;;;;;;;;;;;26.99;40.31;99655.94;4470019;32;34998;-86
2022/09/04 12:10:20;;;;;;;;;;;;;;;26.96;40.52;99656.94;4482294;32;33538;-87
2022/09/04 12:12:51;;;;;;;;;;;;;;;27.54;37.19;99653.31;4466536;32;34979;-86
2022/09/04 12:15:22;;;;;;;;;;;;;;;27.32;38.55;99665.03;4467604;32;35092;-86
2022/09/04 12:17:50;;;;;;;;;;;;;;;26.93;41.00;99651.75;4480144;32;33825;-85
2022/09/04 12:20:22;;;;;;;;;;;;;;;26.79;41.49;99665.72;4481332;32;33698;-88
2022/09/04 12:23:01;;;;;;;;;;;;;;;26.74;40.33;99658.87;4481971;32;35152;-86
2022/09/04 12:25:37;;;;;;;;;;;;;;;26.74;41.32;99654.41;4466277;32;35159;-86
2022/09/04 12:28:08;;;;;;;;;;;;;;;27.05;41.25;99658.31;4466574;32;33655;-90
2022/09/04 12:30:38;;;;;;;;;;;;;;;27.34;40.47;99656.97;4465971;32;33007;-86
2022/09/04 12:33:32;;;;;;;;;;;;;;;27.45;40.25;99654.62;4470836;32;34243;-89
2022/09/04 12:36:16;;;;;;;;;;;;;;;27.55;38.05;99663.06;4451954;32;34537;-85
2022/09/04 12:38:46;;;;;;;;;;;;;;;27.96;36.57;99657.47;4462801;32;34327;-85
2022/09/04 12:41:20;;;;;;;;;;;;;;;27.48;38.26;99656.28;4475555;32;34325;-87
2022/09/04 12:44:07;;;;;;;;;;;;;;;28.09;36.28;99655.91;4467730;32;35037;-87
2022/09/04 12:46:49;;;;;;;;;;;;;;;25.95;39.34;99658.78;4482820;32;34030;-86
2022/09/04 12:49:56;;;;;;;;;;;;;;;27.00;37.64;99647.03;4480954;32;35339;-84
2022/09/04 12:52:31;;;;;;;;;;;;;;;27.44;36.84;99654.72;4418478;32;33322;-85
2022/09/04 12:55:04;;;;;;;;;;;;;;;27.77;37.78;99649.53;4405869;32;35037;-84
2022/09/04 12:57:32;;;;;;;;;;;;;;;27.80;36.89;99644.91;4455816;32;35037;-85
2022/09/04 13:00:06;;;;;;;;;;;;;;;27.59;36.97;99641.50;4479254;32;33843;-85
2022/09/04 13:02:34;;;;;;;;;;;;;;;27.17;38.98;99639.16;4455478;32;33203;-85
2022/09/04 13:05:11;;;;;;;;;;;;;;;26.89;38.25;99645.72;4467236;32;34613;-87
2022/09/04 13:07:54;;;;;;;;;;;;;;;28.20;36.35;99644.69;4467076;32;34117;-86
2022/09/04 13:10:22;;;;;;;;;;;;;;;28.07;35.48;99637.34;4453256;32;35113;-89
2022/09/04 13:12:58;;;;;;;;;;;;;;;27.55;38.77;99639.09;4467265;32;33573;-88
2022/09/04 13:15:46;;;;;;;;;;;;;;;28.18;37.24;99627.91;4466101;32;33944;-85
2022/09/04 13:18:23;;;;;;;;;;;;;;;28.54;34.69;99625.13;4467532;32;34223;-88
2022/09/04 13:21:04;;;;;;;;;;;;;;;28.42;36.71;99628.47;4465972;32;32729;-89
2022/09/04 13:23:37;;;;;;;;;;;;;;;28.51;36.21;99623.47;4456063;32;33584;-83
2022/09/04 13:26:19;;;;;;;;;;;;;;;28.90;34.97;99622.25;4470685;32;34848;-87
2022/09/04 13:29:07;;;;;;;;;;;;;;;28.57;36.50;99615.16;4468551;32;34201;-87
2022/09/04 13:31:39;;;;;;;;;;;;;;;28.88;34.38;99618.81;4443808;32;33933;-85
2022/09/04 13:34:09;;;;;;;;;;;;;;;28.65;36.04;99619.22;4474831;32;33270;-85
2022/09/04 13:36:39;;;;;;;;;;;;;;;28.59;35.43;99623.91;4467789;32;33978;-85
2022/09/04 13:39:06;;;;;;;;;;;;;;;27.82;35.42;99628.88;4466276;32;34110;-86
2022/09/04 13:41:36;;;;;;;;;;;;;;;26.58;38.30;99625.00;4466579;32;33944;-90